weather.gov     
National Weather Service

Terminal Aerodrome Forecast
NWS Homepage
This page is being discontinued on March 12, 2014.
The same data is available at this site. Please update your bookmarks.
Thank you, and we apologize for the inconvenience.
Please send an email to SR-SRH.Webmaster@noaa.gov with any concerns.


Current Version
Previous Version:    01  02  03  04  05  06  07  08  09  10  11  12  13  14  15  16  17  18  19  20  21  22  23  24  25  26  27  28  29  30  
   31  32  33  34  35  36  37  38  
[Printable]
444
FTUS43 KGRB 250500
TAFRHI
TAF
KRHI 250530Z 2506/2606 17003KT P6SM SCT060 BKN120 WS010/23030KT
     FM251400 18009G17KT P6SM SCT040 BKN090
     FM252100 21011KT P6SM SCT035 BKN070
      TEMPO 2522/2602 -SHRA BKN035
     FM260200 19003KT 5SM -SHRA BR SCT018 BKN030=


U.S. Dept. of Commerce
NOAA National Weather Service
1325 East West Highway
Silver Spring, MD 20910
E-mail: w-nws.webmaster@noaa.gov
Page last modified: May 16, 2007
NATIONAL WEATHER SERVICE: for Safety, for Work, for Fun - FOR LIFE